Sacramento, California
Traffic Map
Current Weather Conditions
Sacramento, California
Scattered Clouds
Scattered Clouds
60°
Feels Like: 60°
Wind Chill: 60° Ceiling: Unl
Heat Index: 60° Visibility: 7mi
Dew Point: 55° Wind: 7mph
Humidity: 83% Direction: 130° (SE)
Pressure: 30.12in Gusts: 0mph
Raw Report DataKSAC 222353Z 13006KT 7SM SCT011 16/13 A3012 RMK AO2 SLP200 60001 T01560128 10161 20117 53010
Traffic Incident Summary
Active as of:
Severity:
Category:
InformationThere was an issue retrieving the traffic information for this location. Please try a different location or try again shortly.
Advertisements
Track Severe Weather on mobile